DLH7WI EDLP-EDDC
Flight info
| Callsign | DLH7WI |
|---|---|
| Flight time | 0h 43m |
| Altitude | 23000 |
| Route | WRB1X WRB Z21 RIVSA |
| Aircraft | A20N/M-SDE2E3FGHIRWXY/LB1 |
Departure
| Time | 2026-04-27 20:04 |
|---|---|
| Airport | Paderborn Lippstadt Airport (EDLP) |
Arrival
| Time | 2026-04-27 20:47 |
|---|---|
| Airport | Dresden Airport (EDDC) |
| Time | Latitude | Longitude | Altitude | Speed | Heading |
|---|---|---|---|---|---|
| 2026-04-27 19:41 | 51.61152 | 8.61998 | 694 ft | 0 kts | 147° |
| 2026-04-27 19:51 | 51.61153 | 8.61996 | 694 ft | 2 kts | 147° |
| 2026-04-27 19:51 | 51.61176 | 8.61978 | 694 ft | 4 kts | 169° |
| 2026-04-27 19:51 | 51.61201 | 8.61979 | 694 ft | 4 kts | 216° |
| 2026-04-27 19:52 | 51.61210 | 8.61993 | 699 ft | 1 kts | 238° |
| 2026-04-27 20:00 | 51.61193 | 8.61950 | 697 ft | 14 kts | 238° |
| 2026-04-27 20:00 | 51.61126 | 8.61783 | 698 ft | 21 kts | 236° |
| 2026-04-27 20:00 | 51.61036 | 8.61563 | 703 ft | 26 kts | 237° |
| 2026-04-27 20:00 | 51.60962 | 8.61298 | 710 ft | 25 kts | 274° |
| 2026-04-27 20:01 | 51.60961 | 8.61014 | 714 ft | 28 kts | 237° |
| 2026-04-27 20:01 | 51.60880 | 8.60821 | 717 ft | 0 kts | 237° |
| 2026-04-27 20:01 | 51.60864 | 8.60783 | 716 ft | 6 kts | 237° |
| 2026-04-27 20:01 | 51.60847 | 8.60738 | 716 ft | 15 kts | 237° |
| 2026-04-27 20:02 | 51.60778 | 8.60568 | 718 ft | 17 kts | 240° |
| 2026-04-27 20:02 | 51.60771 | 8.60401 | 721 ft | 0 kts | 304° |
| 2026-04-27 20:03 | 51.60812 | 8.60355 | 718 ft | 23 kts | 340° |
| 2026-04-27 20:03 | 51.61002 | 8.60651 | 716 ft | 68 kts | 59° |
| 2026-04-27 20:03 | 51.61384 | 8.61584 | 710 ft | 130 kts | 56° |
| 2026-04-27 20:03 | 51.61975 | 8.63000 | 890 ft | 160 kts | 56° |
| 2026-04-27 20:04 | 51.62549 | 8.64469 | 1613 ft | 154 kts | 56° |
| 2026-04-27 20:04 | 51.63143 | 8.65887 | 2254 ft | 153 kts | 56° |
| 2026-04-27 20:04 | 51.63749 | 8.67404 | 2667 ft | 170 kts | 61° |
| 2026-04-27 20:04 | 51.64224 | 8.69255 | 3037 ft | 188 kts | 74° |
| 2026-04-27 20:05 | 51.64498 | 8.71440 | 3329 ft | 211 kts | 79° |
| 2026-04-27 20:05 | 51.64783 | 8.73882 | 3773 ft | 233 kts | 79° |
| 2026-04-27 20:05 | 51.64983 | 8.76544 | 4274 ft | 254 kts | 94° |
| 2026-04-27 20:05 | 51.64471 | 8.79349 | 4723 ft | 268 kts | 121° |
| 2026-04-27 20:06 | 51.63408 | 8.81853 | 5134 ft | 271 kts | 126° |
| 2026-04-27 20:06 | 51.62302 | 8.84324 | 5533 ft | 273 kts | 126° |
| 2026-04-27 20:06 | 51.61199 | 8.86792 | 5932 ft | 275 kts | 126° |
| 2026-04-27 20:06 | 51.60089 | 8.89304 | 6334 ft | 276 kts | 126° |
| 2026-04-27 20:07 | 51.58975 | 8.91845 | 6733 ft | 278 kts | 125° |
| 2026-04-27 20:07 | 51.57854 | 8.94410 | 7132 ft | 280 kts | 125° |
| 2026-04-27 20:07 | 51.56737 | 8.96973 | 7541 ft | 281 kts | 125° |
| 2026-04-27 20:07 | 51.55623 | 8.99525 | 7937 ft | 283 kts | 125° |
| 2026-04-27 20:08 | 51.54490 | 9.02120 | 8344 ft | 284 kts | 125° |
| 2026-04-27 20:08 | 51.53350 | 9.04725 | 8737 ft | 286 kts | 125° |
| 2026-04-27 20:08 | 51.52202 | 9.07348 | 9140 ft | 287 kts | 125° |
| 2026-04-27 20:08 | 51.51118 | 9.10058 | 9543 ft | 289 kts | 116° |
| 2026-04-27 20:09 | 51.50470 | 9.13129 | 9943 ft | 291 kts | 100° |
| 2026-04-27 20:09 | 51.50260 | 9.16418 | 10361 ft | 305 kts | 94° |
| 2026-04-27 20:09 | 51.50083 | 9.19892 | 10771 ft | 326 kts | 95° |
| 2026-04-27 20:09 | 51.49882 | 9.23636 | 11182 ft | 341 kts | 95° |
| 2026-04-27 20:10 | 51.49670 | 9.27459 | 11585 ft | 344 kts | 95° |
| 2026-04-27 20:10 | 51.49454 | 9.31286 | 11985 ft | 346 kts | 95° |
| 2026-04-27 20:10 | 51.49235 | 9.35155 | 12379 ft | 349 kts | 95° |
| 2026-04-27 20:10 | 51.49014 | 9.39043 | 12786 ft | 350 kts | 95° |
| 2026-04-27 20:11 | 51.48793 | 9.42905 | 13185 ft | 352 kts | 95° |
| 2026-04-27 20:11 | 51.48566 | 9.46850 | 13587 ft | 355 kts | 95° |
| 2026-04-27 20:11 | 51.48337 | 9.50811 | 13986 ft | 357 kts | 95° |
| 2026-04-27 20:11 | 51.48104 | 9.54816 | 14392 ft | 360 kts | 95° |
| 2026-04-27 20:12 | 51.47872 | 9.58771 | 14791 ft | 362 kts | 95° |
| 2026-04-27 20:12 | 51.47636 | 9.62791 | 15183 ft | 363 kts | 95° |
| 2026-04-27 20:12 | 51.47396 | 9.66844 | 15591 ft | 366 kts | 95° |
| 2026-04-27 20:12 | 51.47153 | 9.70916 | 16084 ft | 367 kts | 95° |
| 2026-04-27 20:13 | 51.46907 | 9.75024 | 16709 ft | 371 kts | 95° |
| 2026-04-27 20:13 | 51.46656 | 9.79178 | 17340 ft | 375 kts | 95° |
| 2026-04-27 20:13 | 51.46401 | 9.83357 | 17966 ft | 378 kts | 95° |
| 2026-04-27 20:13 | 51.46146 | 9.87537 | 18589 ft | 381 kts | 96° |
| 2026-04-27 20:14 | 51.45883 | 9.91799 | 19217 ft | 385 kts | 96° |
| 2026-04-27 20:14 | 51.45617 | 9.96089 | 19844 ft | 389 kts | 96° |
| 2026-04-27 20:14 | 51.45348 | 10.00411 | 20470 ft | 392 kts | 96° |
| 2026-04-27 20:14 | 51.45074 | 10.04780 | 21099 ft | 395 kts | 96° |
| 2026-04-27 20:15 | 51.44797 | 10.09179 | 21725 ft | 397 kts | 96° |
| 2026-04-27 20:15 | 51.44517 | 10.13590 | 22350 ft | 399 kts | 96° |
| 2026-04-27 20:15 | 51.44233 | 10.18040 | 22823 ft | 405 kts | 96° |
| 2026-04-27 20:15 | 51.43941 | 10.22591 | 22974 ft | 410 kts | 96° |
| 2026-04-27 20:16 | 51.43649 | 10.27102 | 23000 ft | 409 kts | 96° |
| 2026-04-27 20:16 | 51.43354 | 10.31646 | 23000 ft | 409 kts | 96° |
| 2026-04-27 20:16 | 51.43057 | 10.36186 | 23000 ft | 410 kts | 96° |
| 2026-04-27 20:16 | 51.42758 | 10.40728 | 22999 ft | 410 kts | 96° |
| 2026-04-27 20:17 | 51.42457 | 10.45272 | 23000 ft | 409 kts | 96° |
| 2026-04-27 20:17 | 51.42157 | 10.49775 | 23000 ft | 409 kts | 96° |
| 2026-04-27 20:17 | 51.41772 | 10.54313 | 23001 ft | 409 kts | 99° |
| 2026-04-27 20:17 | 51.41475 | 10.57303 | 22999 ft | 409 kts | 99° |
| 2026-04-27 20:18 | 51.40894 | 10.63284 | 23000 ft | 410 kts | 99° |
| 2026-04-27 20:18 | 51.40455 | 10.67809 | 23000 ft | 410 kts | 99° |
| 2026-04-27 20:18 | 51.40015 | 10.72327 | 23000 ft | 410 kts | 99° |
| 2026-04-27 20:18 | 51.39571 | 10.76840 | 23000 ft | 409 kts | 99° |
| 2026-04-27 20:19 | 51.39127 | 10.81336 | 23000 ft | 409 kts | 99° |
| 2026-04-27 20:19 | 51.38684 | 10.85789 | 23000 ft | 409 kts | 99° |
| 2026-04-27 20:19 | 51.38245 | 10.90297 | 23000 ft | 410 kts | 97° |
| 2026-04-27 20:19 | 51.38049 | 10.94942 | 23002 ft | 427 kts | 90° |
| 2026-04-27 20:20 | 51.38184 | 10.99808 | 23002 ft | 444 kts | 86° |
| 2026-04-27 20:20 | 51.38383 | 11.04838 | 23001 ft | 459 kts | 86° |
| 2026-04-27 20:20 | 51.38577 | 11.09973 | 23000 ft | 473 kts | 86° |
| 2026-04-27 20:20 | 51.38770 | 11.15246 | 23000 ft | 475 kts | 86° |
| 2026-04-27 20:21 | 51.38961 | 11.20564 | 23000 ft | 474 kts | 86° |
| 2026-04-27 20:21 | 51.39146 | 11.25767 | 23000 ft | 473 kts | 86° |
| 2026-04-27 20:21 | 51.39331 | 11.31066 | 23000 ft | 474 kts | 86° |
| 2026-04-27 20:21 | 51.39513 | 11.36342 | 23000 ft | 473 kts | 86° |
| 2026-04-27 20:22 | 51.39693 | 11.41618 | 23000 ft | 474 kts | 87° |
| 2026-04-27 20:22 | 51.39869 | 11.46843 | 23000 ft | 474 kts | 87° |
| 2026-04-27 20:22 | 51.40045 | 11.52117 | 23000 ft | 474 kts | 87° |
| 2026-04-27 20:22 | 51.40219 | 11.57390 | 23000 ft | 474 kts | 87° |
| 2026-04-27 20:23 | 51.40391 | 11.62666 | 23000 ft | 474 kts | 87° |
| 2026-04-27 20:23 | 51.40559 | 11.67923 | 23000 ft | 474 kts | 87° |
| 2026-04-27 20:23 | 51.40726 | 11.73210 | 23000 ft | 474 kts | 87° |
| 2026-04-27 20:23 | 51.40891 | 11.78484 | 23000 ft | 474 kts | 87° |
| 2026-04-27 20:24 | 51.41050 | 11.83688 | 23000 ft | 474 kts | 87° |
| 2026-04-27 20:24 | 51.41210 | 11.88962 | 23000 ft | 473 kts | 87° |
| 2026-04-27 20:24 | 51.41367 | 11.94252 | 23000 ft | 473 kts | 87° |
| 2026-04-27 20:24 | 51.41522 | 11.99517 | 23000 ft | 473 kts | 87° |
| 2026-04-27 20:25 | 51.41673 | 12.04782 | 23000 ft | 473 kts | 87° |
| 2026-04-27 20:25 | 51.41823 | 12.10062 | 23000 ft | 473 kts | 87° |
| 2026-04-27 20:25 | 51.41970 | 12.15330 | 23000 ft | 473 kts | 87° |
| 2026-04-27 20:25 | 51.42114 | 12.20611 | 23000 ft | 473 kts | 87° |
| 2026-04-27 20:26 | 51.42255 | 12.25806 | 23000 ft | 474 kts | 87° |
| 2026-04-27 20:26 | 51.42395 | 12.31088 | 23000 ft | 473 kts | 88° |
| 2026-04-27 20:26 | 51.42533 | 12.36382 | 23000 ft | 473 kts | 88° |
| 2026-04-27 20:26 | 51.42668 | 12.41664 | 23000 ft | 474 kts | 88° |
| 2026-04-27 20:27 | 51.42794 | 12.46948 | 22999 ft | 473 kts | 89° |
| 2026-04-27 20:27 | 51.42540 | 12.52131 | 23000 ft | 473 kts | 100° |
| 2026-04-27 20:27 | 51.41671 | 12.57238 | 23000 ft | 473 kts | 111° |
| 2026-04-27 20:27 | 51.40224 | 12.61975 | 23002 ft | 473 kts | 121° |
| 2026-04-27 20:28 | 51.38476 | 12.66453 | 23000 ft | 473 kts | 122° |
| 2026-04-27 20:28 | 51.36751 | 12.70878 | 23000 ft | 473 kts | 122° |
| 2026-04-27 20:28 | 51.35020 | 12.75322 | 22999 ft | 464 kts | 122° |
| 2026-04-27 20:28 | 51.33898 | 12.78199 | 22998 ft | 449 kts | 122° |
| 2026-04-27 20:29 | 51.31756 | 12.83686 | 22999 ft | 421 kts | 122° |
| 2026-04-27 20:29 | 51.30242 | 12.87557 | 22999 ft | 402 kts | 122° |
| 2026-04-27 20:29 | 51.28763 | 12.91332 | 23000 ft | 407 kts | 122° |
| 2026-04-27 20:29 | 51.27250 | 12.95192 | 23000 ft | 409 kts | 122° |
| 2026-04-27 20:30 | 51.25740 | 12.99046 | 22988 ft | 407 kts | 122° |
| 2026-04-27 20:30 | 51.24236 | 13.02879 | 22721 ft | 405 kts | 122° |
| 2026-04-27 20:30 | 51.22747 | 13.06668 | 22265 ft | 402 kts | 122° |
| 2026-04-27 20:30 | 51.21278 | 13.10402 | 21715 ft | 400 kts | 122° |
| 2026-04-27 20:31 | 51.19803 | 13.14143 | 21136 ft | 396 kts | 122° |
| 2026-04-27 20:31 | 51.18341 | 13.17845 | 20595 ft | 393 kts | 122° |
| 2026-04-27 20:31 | 51.16886 | 13.21527 | 20011 ft | 390 kts | 122° |
| 2026-04-27 20:31 | 51.15496 | 13.25234 | 19436 ft | 387 kts | 115° |
| 2026-04-27 20:32 | 51.14722 | 13.29249 | 18875 ft | 383 kts | 97° |
| 2026-04-27 20:32 | 51.14751 | 13.33457 | 18299 ft | 380 kts | 79° |
| 2026-04-27 20:32 | 51.15595 | 13.37406 | 17729 ft | 376 kts | 61° |
| 2026-04-27 20:32 | 51.17178 | 13.40707 | 17153 ft | 373 kts | 42° |
| 2026-04-27 20:33 | 51.19315 | 13.43004 | 16595 ft | 369 kts | 25° |
| 2026-04-27 20:33 | 51.21625 | 13.44669 | 16065 ft | 366 kts | 24° |
| 2026-04-27 20:33 | 51.23944 | 13.46339 | 15525 ft | 363 kts | 24° |
| 2026-04-27 20:33 | 51.26153 | 13.48244 | 14978 ft | 361 kts | 37° |
| 2026-04-27 20:34 | 51.27858 | 13.51151 | 14436 ft | 358 kts | 57° |
| 2026-04-27 20:34 | 51.28814 | 13.54796 | 13889 ft | 356 kts | 78° |
| 2026-04-27 20:34 | 51.28900 | 13.58672 | 13351 ft | 353 kts | 99° |
| 2026-04-27 20:34 | 51.28108 | 13.62340 | 12809 ft | 350 kts | 121° |
| 2026-04-27 20:35 | 51.26542 | 13.65271 | 12273 ft | 347 kts | 142° |
| 2026-04-27 20:35 | 51.24438 | 13.66986 | 12017 ft | 334 kts | 166° |
| 2026-04-27 20:35 | 51.22199 | 13.67259 | 11880 ft | 319 kts | 188° |
| 2026-04-27 20:35 | 51.20144 | 13.66126 | 11715 ft | 306 kts | 212° |
| 2026-04-27 20:36 | 51.18554 | 13.63913 | 11447 ft | 306 kts | 229° |
| 2026-04-27 20:36 | 51.17197 | 13.61260 | 11193 ft | 308 kts | 234° |
| 2026-04-27 20:36 | 51.15847 | 13.58632 | 10815 ft | 307 kts | 227° |
| 2026-04-27 20:36 | 51.14325 | 13.56253 | 10130 ft | 314 kts | 223° |
| 2026-04-27 20:37 | 51.12654 | 13.53917 | 9328 ft | 324 kts | 221° |
| 2026-04-27 20:37 | 51.10909 | 13.51568 | 8521 ft | 332 kts | 220° |
| 2026-04-27 20:37 | 51.09725 | 13.49983 | 8069 ft | 334 kts | 220° |
| 2026-04-27 20:37 | 51.07950 | 13.47597 | 7465 ft | 334 kts | 220° |
| 2026-04-27 20:38 | 51.05602 | 13.44421 | 6669 ft | 333 kts | 221° |
| 2026-04-27 20:38 | 51.04436 | 13.42839 | 6272 ft | 332 kts | 221° |
| 2026-04-27 20:38 | 51.02677 | 13.40450 | 5617 ft | 333 kts | 221° |
| 2026-04-27 20:38 | 51.00912 | 13.38053 | 4941 ft | 334 kts | 221° |
| 2026-04-27 20:39 | 50.99099 | 13.35802 | 4533 ft | 326 kts | 210° |
| 2026-04-27 20:39 | 50.97020 | 13.34745 | 4484 ft | 302 kts | 185° |
| 2026-04-27 20:39 | 50.95025 | 13.35141 | 4484 ft | 281 kts | 159° |
| 2026-04-27 20:39 | 50.93469 | 13.36776 | 4475 ft | 261 kts | 133° |
| 2026-04-27 20:40 | 50.92629 | 13.39133 | 4449 ft | 242 kts | 100° |
| 2026-04-27 20:40 | 50.92813 | 13.41693 | 4192 ft | 234 kts | 63° |
| 2026-04-27 20:40 | 50.93651 | 13.43841 | 4024 ft | 224 kts | 54° |
| 2026-04-27 20:40 | 50.94523 | 13.45789 | 3991 ft | 208 kts | 53° |
| 2026-04-27 20:41 | 50.95346 | 13.47575 | 4010 ft | 203 kts | 53° |
| 2026-04-27 20:41 | 50.96204 | 13.49376 | 4003 ft | 203 kts | 52° |
| 2026-04-27 20:41 | 50.97083 | 13.51144 | 4005 ft | 203 kts | 51° |
| 2026-04-27 20:41 | 50.97967 | 13.52857 | 3981 ft | 204 kts | 50° |
| 2026-04-27 20:42 | 50.98887 | 13.54574 | 3861 ft | 202 kts | 49° |
| 2026-04-27 20:42 | 50.99779 | 13.56185 | 3903 ft | 183 kts | 48° |
| 2026-04-27 20:42 | 51.00587 | 13.57620 | 3871 ft | 165 kts | 47° |
| 2026-04-27 20:42 | 51.01333 | 13.58922 | 3691 ft | 158 kts | 47° |
| 2026-04-27 20:43 | 51.02073 | 13.60182 | 3502 ft | 153 kts | 46° |
| 2026-04-27 20:43 | 51.02794 | 13.61379 | 3311 ft | 146 kts | 45° |
| 2026-04-27 20:43 | 51.03490 | 13.62507 | 3118 ft | 140 kts | 44° |
| 2026-04-27 20:43 | 51.04174 | 13.63590 | 2937 ft | 141 kts | 44° |
| 2026-04-27 20:44 | 51.04871 | 13.64667 | 2753 ft | 138 kts | 43° |
| 2026-04-27 20:44 | 51.05572 | 13.65724 | 2571 ft | 139 kts | 43° |
| 2026-04-27 20:44 | 51.06270 | 13.66761 | 2398 ft | 139 kts | 42° |
| 2026-04-27 20:44 | 51.06985 | 13.67784 | 2226 ft | 137 kts | 39° |
| 2026-04-27 20:45 | 51.07709 | 13.68797 | 2071 ft | 138 kts | 41° |
| 2026-04-27 20:45 | 51.08425 | 13.69817 | 1826 ft | 135 kts | 41° |
| 2026-04-27 20:45 | 51.09122 | 13.70813 | 1685 ft | 137 kts | 41° |
| 2026-04-27 20:45 | 51.09840 | 13.71818 | 1465 ft | 135 kts | 40° |
| 2026-04-27 20:46 | 51.10558 | 13.72806 | 1292 ft | 137 kts | 40° |
| 2026-04-27 20:46 | 51.11263 | 13.73784 | 1122 ft | 136 kts | 40° |
| 2026-04-27 20:46 | 51.11971 | 13.74755 | 928 ft | 128 kts | 40° |
| 2026-04-27 20:46 | 51.12613 | 13.75653 | 782 ft | 118 kts | 40° |
| 2026-04-27 20:47 | 51.13173 | 13.76436 | 748 ft | 90 kts | 45° |
| 2026-04-27 20:47 | 51.13576 | 13.77031 | 730 ft | 74 kts | 38° |
| 2026-04-27 20:47 | 51.13895 | 13.77473 | 723 ft | 32 kts | 69° |
| 2026-04-27 20:47 | 51.13835 | 13.77639 | 722 ft | 0 kts | 133° |
| 2026-04-27 20:49 | 51.13833 | 13.77642 | 721 ft | 4 kts | 133° |
| 2026-04-27 20:49 | 51.13751 | 13.77713 | 720 ft | 20 kts | 192° |
| 2026-04-27 20:50 | 51.13639 | 13.77557 | 725 ft | 23 kts | 222° |
| 2026-04-27 20:50 | 51.13505 | 13.77372 | 728 ft | 28 kts | 221° |
| 2026-04-27 20:50 | 51.13345 | 13.77152 | 731 ft | 32 kts | 218° |
| 2026-04-27 20:50 | 51.13168 | 13.76912 | 740 ft | 34 kts | 221° |
| 2026-04-27 20:51 | 51.12982 | 13.76655 | 745 ft | 36 kts | 222° |
| 2026-04-27 20:51 | 51.12809 | 13.76417 | 749 ft | 25 kts | 222° |
| 2026-04-27 20:51 | 51.12700 | 13.76269 | 749 ft | 18 kts | 220° |
| 2026-04-27 20:51 | 51.12629 | 13.76292 | 752 ft | 10 kts | 128° |
| 2026-04-27 20:52 | 51.12604 | 13.76340 | 753 ft | 0 kts | 131° |
| 2026-04-27 20:52 | 51.12600 | 13.76348 | 753 ft | 0 kts | 131° |